sensor_id;sensor_type;location;lat;lon;timestamp;pressure;altitude;pressure_sealevel;temperature;humidity
21011;BME280;10663;42.714;23.274;2023-06-14T00:00:18;94451.75;;;20.43;73.75
21011;BME280;10663;42.714;23.274;2023-06-14T00:01:49;94455.69;;;20.25;74.26
21011;BME280;10663;42.714;23.274;2023-06-14T00:03:19;94452.97;;;20.12;75.03
21011;BME280;10663;42.714;23.274;2023-06-14T00:04:52;94455.00;;;20.36;74.13
21011;BME280;10663;42.714;23.274;2023-06-14T00:06:23;94453.97;;;20.41;73.49
21011;BME280;10663;42.714;23.274;2023-06-14T00:07:54;94451.88;;;20.46;74.25
21011;BME280;10663;42.714;23.274;2023-06-14T00:09:25;94447.06;;;20.52;74.48
21011;BME280;10663;42.714;23.274;2023-06-14T00:10:56;94451.09;;;20.58;72.86
21011;BME280;10663;42.714;23.274;2023-06-14T00:12:27;94447.28;;;20.47;73.64
21011;BME280;10663;42.714;23.274;2023-06-14T00:13:58;94449.72;;;20.40;74.12
21011;BME280;10663;42.714;23.274;2023-06-14T00:15:28;94452.09;;;20.41;74.16
21011;BME280;10663;42.714;23.274;2023-06-14T00:16:59;94455.22;;;20.43;74.10
21011;BME280;10663;42.714;23.274;2023-06-14T00:18:30;94459.03;;;20.42;73.88
21011;BME280;10663;42.714;23.274;2023-06-14T00:20:03;94455.47;;;20.17;74.67
21011;BME280;10663;42.714;23.274;2023-06-14T00:21:38;94454.84;;;20.33;73.70
21011;BME280;10663;42.714;23.274;2023-06-14T00:23:09;94449.19;;;20.46;72.82
21011;BME280;10663;42.714;23.274;2023-06-14T00:24:40;94454.13;;;20.44;73.19
21011;BME280;10663;42.714;23.274;2023-06-14T00:26:11;94447.88;;;20.32;73.32
21011;BME280;10663;42.714;23.274;2023-06-14T00:27:43;94451.34;;;20.32;73.51
21011;BME280;10663;42.714;23.274;2023-06-14T00:29:14;94447.50;;;20.42;73.12
21011;BME280;10663;42.714;23.274;2023-06-14T00:30:45;94445.09;;;20.28;75.00
21011;BME280;10663;42.714;23.274;2023-06-14T00:32:18;94446.06;;;20.44;73.19
21011;BME280;10663;42.714;23.274;2023-06-14T00:33:49;94443.78;;;20.34;73.77
21011;BME280;10663;42.714;23.274;2023-06-14T00:35:20;94444.63;;;20.26;74.89
21011;BME280;10663;42.714;23.274;2023-06-14T00:36:51;94439.69;;;20.28;74.88
21011;BME280;10663;42.714;23.274;2023-06-14T00:38:22;94438.91;;;20.48;73.70
21011;BME280;10663;42.714;23.274;2023-06-14T00:39:52;94436.31;;;20.52;73.45
21011;BME280;10663;42.714;23.274;2023-06-14T00:41:23;94436.31;;;20.52;74.60
21011;BME280;10663;42.714;23.274;2023-06-14T00:42:55;94432.72;;;20.60;74.44
21011;BME280;10663;42.714;23.274;2023-06-14T00:44:26;94434.78;;;20.63;75.13
21011;BME280;10663;42.714;23.274;2023-06-14T00:45:56;94442.63;;;20.80;73.75
21011;BME280;10663;42.714;23.274;2023-06-14T00:47:27;94429.72;;;20.86;74.01
21011;BME280;10663;42.714;23.274;2023-06-14T00:48:59;94436.13;;;20.81;74.06
21011;BME280;10663;42.714;23.274;2023-06-14T00:50:31;94431.88;;;20.92;73.59
21011;BME280;10663;42.714;23.274;2023-06-14T00:52:04;94439.94;;;20.80;73.78
21011;BME280;10663;42.714;23.274;2023-06-14T00:53:35;94438.16;;;20.97;73.42
21011;BME280;10663;42.714;23.274;2023-06-14T00:55:06;94430.63;;;20.78;73.36
21011;BME280;10663;42.714;23.274;2023-06-14T00:56:37;94433.88;;;20.96;74.24
21011;BME280;10663;42.714;23.274;2023-06-14T00:58:09;94434.56;;;20.80;74.20
21011;BME280;10663;42.714;23.274;2023-06-14T00:59:46;94442.75;;;20.96;73.89
21011;BME280;10663;42.714;23.274;2023-06-14T01:01:17;94435.13;;;20.74;73.14
21011;BME280;10663;42.714;23.274;2023-06-14T01:02:47;94437.91;;;20.65;74.44
21011;BME280;10663;42.714;23.274;2023-06-14T01:04:20;94440.94;;;20.64;74.77
21011;BME280;10663;42.714;23.274;2023-06-14T01:06:09;94433.06;;;20.59;74.48
21011;BME280;10663;42.714;23.274;2023-06-14T01:07:57;94438.34;;;20.55;74.43
21011;BME280;10663;42.714;23.274;2023-06-14T01:11:12;94431.66;;;20.07;76.26
21011;BME280;10663;42.714;23.274;2023-06-14T01:13:03;94429.47;;;20.22;75.64
21011;BME280;10663;42.714;23.274;2023-06-14T01:14:36;94424.88;;;20.22;76.08
21011;BME280;10663;42.714;23.274;2023-06-14T01:16:07;94436.31;;;20.19;75.23
21011;BME280;10663;42.714;23.274;2023-06-14T01:17:40;94429.03;;;20.20;75.69
21011;BME280;10663;42.714;23.274;2023-06-14T01:19:14;94434.59;;;20.14;75.26
21011;BME280;10663;42.714;23.274;2023-06-14T01:20:47;94433.44;;;20.03;75.52
21011;BME280;10663;42.714;23.274;2023-06-14T01:22:21;94430.56;;;20.08;74.69
21011;BME280;10663;42.714;23.274;2023-06-14T01:23:52;94422.75;;;19.95;75.29
21011;BME280;10663;42.714;23.274;2023-06-14T01:25:23;94431.44;;;19.79;75.81
21011;BME280;10663;42.714;23.274;2023-06-14T01:26:55;94431.56;;;19.83;75.81
21011;BME280;10663;42.714;23.274;2023-06-14T01:28:27;94429.53;;;20.01;74.60
21011;BME280;10663;42.714;23.274;2023-06-14T01:30:02;94434.91;;;19.80;75.45
21011;BME280;10663;42.714;23.274;2023-06-14T01:31:34;94433.22;;;19.75;76.06
21011;BME280;10663;42.714;23.274;2023-06-14T01:33:16;94430.81;;;19.95;74.96
21011;BME280;10663;42.714;23.274;2023-06-14T01:34:48;94422.91;;;19.98;75.00
21011;BME280;10663;42.714;23.274;2023-06-14T01:36:19;94424.00;;;19.97;75.10
21011;BME280;10663;42.714;23.274;2023-06-14T01:37:51;94421.78;;;19.99;75.02
21011;BME280;10663;42.714;23.274;2023-06-14T01:39:24;94427.66;;;20.13;74.88
21011;BME280;10663;42.714;23.274;2023-06-14T01:40:56;94420.44;;;20.05;75.51
21011;BME280;10663;42.714;23.274;2023-06-14T01:42:30;94420.75;;;19.92;75.73
21011;BME280;10663;42.714;23.274;2023-06-14T01:44:02;94439.41;;;19.47;77.52
21011;BME280;10663;42.714;23.274;2023-06-14T01:45:34;94430.06;;;19.73;77.04
21011;BME280;10663;42.714;23.274;2023-06-14T01:47:06;94436.16;;;19.83;76.36
21011;BME280;10663;42.714;23.274;2023-06-14T01:48:37;94433.88;;;19.52;77.33
21011;BME280;10663;42.714;23.274;2023-06-14T01:50:09;94437.88;;;19.66;77.36
21011;BME280;10663;42.714;23.274;2023-06-14T01:51:40;94436.75;;;19.88;76.13
21011;BME280;10663;42.714;23.274;2023-06-14T01:53:13;94434.75;;;19.97;75.52
21011;BME280;10663;42.714;23.274;2023-06-14T01:54:44;94441.59;;;19.53;77.04
21011;BME280;10663;42.714;23.274;2023-06-14T01:56:15;94440.66;;;19.49;77.35
21011;BME280;10663;42.714;23.274;2023-06-14T01:57:46;94441.78;;;19.69;76.76
21011;BME280;10663;42.714;23.274;2023-06-14T01:59:17;94440.16;;;19.76;76.57
21011;BME280;10663;42.714;23.274;2023-06-14T02:00:48;94442.41;;;19.45;77.24
21011;BME280;10663;42.714;23.274;2023-06-14T02:02:20;94444.94;;;19.71;76.47
21011;BME280;10663;42.714;23.274;2023-06-14T02:03:50;94449.34;;;19.55;77.09
21011;BME280;10663;42.714;23.274;2023-06-14T02:05:22;94448.09;;;19.73;76.31
21011;BME280;10663;42.714;23.274;2023-06-14T02:06:53;94454.97;;;19.83;75.99
21011;BME280;10663;42.714;23.274;2023-06-14T02:08:23;94443.56;;;19.65;76.66
21011;BME280;10663;42.714;23.274;2023-06-14T02:09:54;94453.72;;;19.59;77.03
21011;BME280;10663;42.714;23.274;2023-06-14T02:11:27;94454.97;;;19.83;76.21
21011;BME280;10663;42.714;23.274;2023-06-14T02:12:58;94455.53;;;19.67;77.14
21011;BME280;10663;42.714;23.274;2023-06-14T02:14:29;94455.81;;;19.95;75.32
21011;BME280;10663;42.714;23.274;2023-06-14T02:16:00;94460.59;;;20.10;75.26
21011;BME280;10663;42.714;23.274;2023-06-14T02:17:32;94457.22;;;20.13;74.58
21011;BME280;10663;42.714;23.274;2023-06-14T02:19:04;94458.47;;;20.16;74.95
21011;BME280;10663;42.714;23.274;2023-06-14T02:20:35;94457.59;;;20.12;74.91
21011;BME280;10663;42.714;23.274;2023-06-14T02:22:06;94457.81;;;20.19;74.33
21011;BME280;10663;42.714;23.274;2023-06-14T02:23:39;94459.25;;;20.16;74.39
21011;BME280;10663;42.714;23.274;2023-06-14T02:25:10;94459.91;;;20.13;74.43
21011;BME280;10663;42.714;23.274;2023-06-14T02:26:41;94466.22;;;20.17;73.52
21011;BME280;10663;42.714;23.274;2023-06-14T02:28:12;94467.03;;;19.97;74.38
21011;BME280;10663;42.714;23.274;2023-06-14T02:29:43;94467.06;;;19.68;75.77
21011;BME280;10663;42.714;23.274;2023-06-14T02:31:14;94470.16;;;19.78;75.97
21011;BME280;10663;42.714;23.274;2023-06-14T02:32:45;94469.63;;;20.06;73.99
21011;BME280;10663;42.714;23.274;2023-06-14T02:34:17;94468.66;;;19.69;75.86
21011;BME280;10663;42.714;23.274;2023-06-14T02:35:48;94463.97;;;19.66;75.77
21011;BME280;10663;42.714;23.274;2023-06-14T02:37:19;94474.50;;;19.92;74.54
21011;BME280;10663;42.714;23.274;2023-06-14T02:38:51;94462.97;;;19.70;75.13
21011;BME280;10663;42.714;23.274;2023-06-14T02:40:22;94465.13;;;19.98;74.42
21011;BME280;10663;42.714;23.274;2023-06-14T02:41:54;94456.91;;;19.94;74.45
21011;BME280;10663;42.714;23.274;2023-06-14T02:43:24;94456.66;;;19.87;74.86
21011;BME280;10663;42.714;23.274;2023-06-14T02:44:55;94459.03;;;19.68;75.59
21011;BME280;10663;42.714;23.274;2023-06-14T02:46:26;94460.13;;;19.67;75.76
21011;BME280;10663;42.714;23.274;2023-06-14T02:47:57;94450.09;;;19.97;74.38
21011;BME280;10663;42.714;23.274;2023-06-14T02:49:28;94447.63;;;19.92;74.37
21011;BME280;10663;42.714;23.274;2023-06-14T02:50:59;94446.44;;;19.80;74.93
21011;BME280;10663;42.714;23.274;2023-06-14T02:52:30;94454.22;;;19.94;74.30
21011;BME280;10663;42.714;23.274;2023-06-14T02:54:03;94452.47;;;19.98;73.96
21011;BME280;10663;42.714;23.274;2023-06-14T02:55:34;94452.69;;;19.93;74.06
21011;BME280;10663;42.714;23.274;2023-06-14T02:57:10;94451.88;;;19.93;74.37
21011;BME280;10663;42.714;23.274;2023-06-14T02:58:42;94454.22;;;20.15;73.55
21011;BME280;10663;42.714;23.274;2023-06-14T03:00:14;94461.47;;;20.02;74.47
21011;BME280;10663;42.714;23.274;2023-06-14T03:01:46;94456.25;;;20.18;73.83
21011;BME280;10663;42.714;23.274;2023-06-14T03:03:19;94452.94;;;20.33;74.02
21011;BME280;10663;42.714;23.274;2023-06-14T03:04:56;94466.28;;;20.09;74.76
21011;BME280;10663;42.714;23.274;2023-06-14T03:06:33;94466.75;;;20.11;74.10
21011;BME280;10663;42.714;23.274;2023-06-14T03:08:04;94470.03;;;19.96;74.35
21011;BME280;10663;42.714;23.274;2023-06-14T03:09:36;94465.91;;;19.98;74.74
21011;BME280;10663;42.714;23.274;2023-06-14T03:11:08;94470.97;;;19.79;74.62
21011;BME280;10663;42.714;23.274;2023-06-14T03:12:40;94469.69;;;19.76;74.60
21011;BME280;10663;42.714;23.274;2023-06-14T03:14:12;94477.78;;;19.97;73.64
21011;BME280;10663;42.714;23.274;2023-06-14T03:15:45;94471.88;;;19.83;74.27
21011;BME280;10663;42.714;23.274;2023-06-14T03:17:17;94474.97;;;19.94;74.27
21011;BME280;10663;42.714;23.274;2023-06-14T03:18:51;94470.03;;;19.96;74.52
21011;BME280;10663;42.714;23.274;2023-06-14T03:20:23;94481.63;;;20.08;73.89
21011;BME280;10663;42.714;23.274;2023-06-14T03:21:54;94485.19;;;20.33;73.21
21011;BME280;10663;42.714;23.274;2023-06-14T03:23:28;94487.34;;;20.07;73.58
21011;BME280;10663;42.714;23.274;2023-06-14T03:24:59;94485.91;;;20.09;74.21
21011;BME280;10663;42.714;23.274;2023-06-14T03:26:31;94481.31;;;20.10;73.78
21011;BME280;10663;42.714;23.274;2023-06-14T03:28:05;94490.63;;;19.71;75.03
21011;BME280;10663;42.714;23.274;2023-06-14T03:29:36;94486.53;;;19.86;75.40
21011;BME280;10663;42.714;23.274;2023-06-14T03:31:07;94486.28;;;19.78;75.36
21011;BME280;10663;42.714;23.274;2023-06-14T03:32:40;94489.41;;;19.60;75.65
21011;BME280;10663;42.714;23.274;2023-06-14T03:34:12;94491.28;;;19.89;74.36
21011;BME280;10663;42.714;23.274;2023-06-14T03:35:44;94484.31;;;19.88;74.45
21011;BME280;10663;42.714;23.274;2023-06-14T03:37:18;94493.09;;;19.76;74.85
21011;BME280;10663;42.714;23.274;2023-06-14T03:38:51;94488.91;;;19.87;75.26
21011;BME280;10663;42.714;23.274;2023-06-14T03:40:22;94490.22;;;19.81;75.46
21011;BME280;10663;42.714;23.274;2023-06-14T03:41:59;94484.06;;;20.01;74.76
21011;BME280;10663;42.714;23.274;2023-06-14T03:43:30;94495.16;;;20.21;73.59
21011;BME280;10663;42.714;23.274;2023-06-14T03:45:01;94488.91;;;20.29;72.62
21011;BME280;10663;42.714;23.274;2023-06-14T03:46:32;94487.84;;;20.42;72.26
21011;BME280;10663;42.714;23.274;2023-06-14T03:48:04;94485.84;;;20.39;71.70
21011;BME280;10663;42.714;23.274;2023-06-14T03:49:37;94483.78;;;20.15;72.62
21011;BME280;10663;42.714;23.274;2023-06-14T03:51:07;94478.88;;;20.50;71.80
21011;BME280;10663;42.714;23.274;2023-06-14T03:52:38;94480.19;;;20.65;71.17
21011;BME280;10663;42.714;23.274;2023-06-14T03:54:10;94486.47;;;20.15;73.35
21011;BME280;10663;42.714;23.274;2023-06-14T03:55:41;94484.41;;;20.33;73.00
21011;BME280;10663;42.714;23.274;2023-06-14T03:57:12;94486.31;;;20.32;72.64
21011;BME280;10663;42.714;23.274;2023-06-14T03:58:43;94489.00;;;20.53;72.23
21011;BME280;10663;42.714;23.274;2023-06-14T04:00:14;94489.28;;;20.72;71.60
21011;BME280;10663;42.714;23.274;2023-06-14T04:01:45;94488.41;;;20.80;70.85
21011;BME280;10663;42.714;23.274;2023-06-14T04:03:21;94483.72;;;21.14;70.08
21011;BME280;10663;42.714;23.274;2023-06-14T04:05:00;94494.75;;;21.21;69.75
21011;BME280;10663;42.714;23.274;2023-06-14T04:06:32;94490.13;;;21.21;69.10
21011;BME280;10663;42.714;23.274;2023-06-14T04:08:04;94492.97;;;21.37;69.06
21011;BME280;10663;42.714;23.274;2023-06-14T04:09:36;94492.84;;;21.46;68.33
21011;BME280;10663;42.714;23.274;2023-06-14T04:11:07;94497.19;;;21.50;68.37
21011;BME280;10663;42.714;23.274;2023-06-14T04:12:39;94491.72;;;21.47;68.60
21011;BME280;10663;42.714;23.274;2023-06-14T04:14:10;94487.13;;;21.35;68.89
21011;BME280;10663;42.714;23.274;2023-06-14T04:15:40;94487.66;;;21.16;69.40
21011;BME280;10663;42.714;23.274;2023-06-14T04:17:13;94486.44;;;21.50;68.47
21011;BME280;10663;42.714;23.274;2023-06-14T04:18:48;94487.88;;;21.72;67.75
21011;BME280;10663;42.714;23.274;2023-06-14T04:20:23;94493.84;;;21.65;67.46
21011;BME280;10663;42.714;23.274;2023-06-14T04:21:55;94492.47;;;21.84;67.29
21011;BME280;10663;42.714;23.274;2023-06-14T04:23:26;94498.06;;;22.03;66.70
21011;BME280;10663;42.714;23.274;2023-06-14T04:24:59;94492.66;;;22.03;67.31
21011;BME280;10663;42.714;23.274;2023-06-14T04:26:31;94493.63;;;21.34;68.75
21011;BME280;10663;42.714;23.274;2023-06-14T04:28:04;94491.13;;;21.17;69.50
21011;BME280;10663;42.714;23.274;2023-06-14T04:29:34;94496.78;;;21.48;68.77
21011;BME280;10663;42.714;23.274;2023-06-14T04:31:09;94496.53;;;21.65;68.77
21011;BME280;10663;42.714;23.274;2023-06-14T04:32:40;94490.63;;;21.88;67.76
21011;BME280;10663;42.714;23.274;2023-06-14T04:34:15;94494.25;;;21.92;67.21
21011;BME280;10663;42.714;23.274;2023-06-14T04:35:54;94499.13;;;22.14;66.88
21011;BME280;10663;42.714;23.274;2023-06-14T04:37:27;94497.22;;;22.43;66.28
21011;BME280;10663;42.714;23.274;2023-06-14T04:39:03;94486.88;;;22.17;67.06
21011;BME280;10663;42.714;23.274;2023-06-14T04:40:36;94494.00;;;22.37;65.70
21011;BME280;10663;42.714;23.274;2023-06-14T04:42:13;94488.81;;;22.04;66.25
21011;BME280;10663;42.714;23.274;2023-06-14T04:43:51;94492.13;;;22.25;66.50
21011;BME280;10663;42.714;23.274;2023-06-14T04:45:24;94493.50;;;22.47;65.64
21011;BME280;10663;42.714;23.274;2023-06-14T04:47:03;94493.03;;;22.73;64.73
21011;BME280;10663;42.714;23.274;2023-06-14T04:48:34;94492.41;;;22.64;64.51
21011;BME280;10663;42.714;23.274;2023-06-14T04:50:05;94497.88;;;22.95;63.87
21011;BME280;10663;42.714;23.274;2023-06-14T04:51:36;94498.00;;;22.71;64.20
21011;BME280;10663;42.714;23.274;2023-06-14T04:53:07;94500.22;;;22.81;63.76
21011;BME280;10663;42.714;23.274;2023-06-14T04:54:40;94500.50;;;22.76;64.06
21011;BME280;10663;42.714;23.274;2023-06-14T04:56:15;94505.28;;;22.55;64.44
21011;BME280;10663;42.714;23.274;2023-06-14T04:57:48;94500.50;;;22.76;63.37
21011;BME280;10663;42.714;23.274;2023-06-14T04:59:19;94508.16;;;22.62;64.53
21011;BME280;10663;42.714;23.274;2023-06-14T05:00:50;94510.97;;;22.65;65.29
21011;BME280;10663;42.714;23.274;2023-06-14T05:02:22;94504.44;;;22.66;64.04
21011;BME280;10663;42.714;23.274;2023-06-14T05:03:54;94506.59;;;22.61;64.30
21011;BME280;10663;42.714;23.274;2023-06-14T05:05:25;94507.94;;;22.67;64.12
21011;BME280;10663;42.714;23.274;2023-06-14T05:06:56;94517.16;;;22.66;64.00
21011;BME280;10663;42.714;23.274;2023-06-14T05:08:27;94514.69;;;22.61;63.71
21011;BME280;10663;42.714;23.274;2023-06-14T05:09:58;94515.47;;;22.61;63.81
21011;BME280;10663;42.714;23.274;2023-06-14T05:11:30;94517.22;;;22.69;63.83
21011;BME280;10663;42.714;23.274;2023-06-14T05:13:01;94515.97;;;22.51;64.33
21011;BME280;10663;42.714;23.274;2023-06-14T05:14:32;94520.38;;;22.71;64.69
21011;BME280;10663;42.714;23.274;2023-06-14T05:16:05;94514.75;;;22.76;63.82
21011;BME280;10663;42.714;23.274;2023-06-14T05:17:37;94522.28;;;22.83;63.61
21011;BME280;10663;42.714;23.274;2023-06-14T05:19:08;94523.34;;;22.94;63.17
21011;BME280;10663;42.714;23.274;2023-06-14T05:20:41;94523.69;;;22.93;63.00
21011;BME280;10663;42.714;23.274;2023-06-14T05:22:12;94521.66;;;22.62;64.38
21011;BME280;10663;42.714;23.274;2023-06-14T05:23:44;94528.63;;;22.63;64.48
21011;BME280;10663;42.714;23.274;2023-06-14T05:25:15;94530.88;;;22.61;64.29
21011;BME280;10663;42.714;23.274;2023-06-14T05:26:46;94533.75;;;22.52;64.07
21011;BME280;10663;42.714;23.274;2023-06-14T05:28:17;94538.59;;;22.47;64.37
21011;BME280;10663;42.714;23.274;2023-06-14T05:29:48;94536.22;;;22.57;64.31
21011;BME280;10663;42.714;23.274;2023-06-14T05:31:19;94540.31;;;22.39;64.54
21011;BME280;10663;42.714;23.274;2023-06-14T05:32:50;94543.78;;;21.51;68.00
21011;BME280;10663;42.714;23.274;2023-06-14T05:34:21;94543.59;;;21.56;67.71
21011;BME280;10663;42.714;23.274;2023-06-14T05:35:52;94548.16;;;21.67;67.89
21011;BME280;10663;42.714;23.274;2023-06-14T05:37:22;94548.16;;;21.80;67.06
21011;BME280;10663;42.714;23.274;2023-06-14T05:38:54;94549.97;;;21.76;66.26
21011;BME280;10663;42.714;23.274;2023-06-14T05:40:30;94548.59;;;22.06;66.63
21011;BME280;10663;42.714;23.274;2023-06-14T05:42:01;94554.50;;;22.36;65.07
21011;BME280;10663;42.714;23.274;2023-06-14T05:43:32;94543.38;;;22.25;65.33
21011;BME280;10663;42.714;23.274;2023-06-14T05:45:03;94553.47;;;22.00;65.88
21011;BME280;10663;42.714;23.274;2023-06-14T05:46:33;94549.41;;;21.82;66.13
21011;BME280;10663;42.714;23.274;2023-06-14T05:48:05;94550.50;;;22.18;65.38
21011;BME280;10663;42.714;23.274;2023-06-14T05:49:35;94551.72;;;21.96;65.47
21011;BME280;10663;42.714;23.274;2023-06-14T05:51:06;94558.06;;;22.12;65.57
21011;BME280;10663;42.714;23.274;2023-06-14T05:52:39;94551.63;;;22.05;65.73
21011;BME280;10663;42.714;23.274;2023-06-14T05:54:10;94544.72;;;22.31;64.99
21011;BME280;10663;42.714;23.274;2023-06-14T05:55:41;94546.13;;;22.41;65.28
21011;BME280;10663;42.714;23.274;2023-06-14T05:57:12;94548.50;;;22.43;65.53
21011;BME280;10663;42.714;23.274;2023-06-14T05:58:42;94548.31;;;22.35;65.66
21011;BME280;10663;42.714;23.274;2023-06-14T06:00:16;94555.13;;;22.45;65.37
21011;BME280;10663;42.714;23.274;2023-06-14T06:01:48;94553.38;;;22.65;64.04
21011;BME280;10663;42.714;23.274;2023-06-14T06:03:19;94559.25;;;22.15;65.70
21011;BME280;10663;42.714;23.274;2023-06-14T06:04:51;94563.22;;;21.44;68.41
21011;BME280;10663;42.714;23.274;2023-06-14T06:06:22;94562.34;;;21.52;68.75
21011;BME280;10663;42.714;23.274;2023-06-14T06:07:53;94556.59;;;21.90;67.63
21011;BME280;10663;42.714;23.274;2023-06-14T06:09:24;94557.72;;;21.89;68.12
21011;BME280;10663;42.714;23.274;2023-06-14T06:10:55;94561.78;;;21.83;68.36
21011;BME280;10663;42.714;23.274;2023-06-14T06:12:27;94561.66;;;21.92;67.58
21011;BME280;10663;42.714;23.274;2023-06-14T06:13:57;94560.09;;;22.03;66.90
21011;BME280;10663;42.714;23.274;2023-06-14T06:15:28;94567.38;;;22.55;65.42
21011;BME280;10663;42.714;23.274;2023-06-14T06:16:59;94564.47;;;22.48;65.10
21011;BME280;10663;42.714;23.274;2023-06-14T06:18:30;94562.34;;;22.41;65.47
21011;BME280;10663;42.714;23.274;2023-06-14T06:20:01;94563.72;;;22.35;65.29
21011;BME280;10663;42.714;23.274;2023-06-14T06:21:32;94562.06;;;22.18;66.48
21011;BME280;10663;42.714;23.274;2023-06-14T06:23:03;94560.53;;;22.45;65.86
21011;BME280;10663;42.714;23.274;2023-06-14T06:24:34;94560.13;;;22.59;65.47
21011;BME280;10663;42.714;23.274;2023-06-14T06:26:05;94566.03;;;22.76;64.36
21011;BME280;10663;42.714;23.274;2023-06-14T06:27:36;94562.22;;;22.77;64.05
21011;BME280;10663;42.714;23.274;2023-06-14T06:29:08;94564.84;;;22.62;64.64
21011;BME280;10663;42.714;23.274;2023-06-14T06:30:39;94574.88;;;22.89;63.24
21011;BME280;10663;42.714;23.274;2023-06-14T06:32:10;94564.84;;;23.18;62.24
21011;BME280;10663;42.714;23.274;2023-06-14T06:33:40;94563.91;;;22.98;62.83
21011;BME280;10663;42.714;23.274;2023-06-14T06:35:11;94561.78;;;23.19;62.07
21011;BME280;10663;42.714;23.274;2023-06-14T06:36:44;94568.03;;;23.07;63.14
21011;BME280;10663;42.714;23.274;2023-06-14T06:38:15;94571.31;;;22.85;63.21
21011;BME280;10663;42.714;23.274;2023-06-14T06:39:46;94565.47;;;23.74;61.08
21011;BME280;10663;42.714;23.274;2023-06-14T06:41:18;94566.34;;;24.13;59.40
21011;BME280;10663;42.714;23.274;2023-06-14T06:42:49;94562.72;;;23.90;59.57
21011;BME280;10663;42.714;23.274;2023-06-14T06:44:23;94564.34;;;23.75;60.38
21011;BME280;10663;42.714;23.274;2023-06-14T06:45:54;94564.63;;;24.05;59.38
21011;BME280;10663;42.714;23.274;2023-06-14T06:47:25;94555.50;;;23.78;60.32
21011;BME280;10663;42.714;23.274;2023-06-14T06:48:56;94557.66;;;23.88;60.67
21011;BME280;10663;42.714;23.274;2023-06-14T06:50:27;94556.69;;;23.96;58.96
21011;BME280;10663;42.714;23.274;2023-06-14T06:52:03;94559.00;;;23.78;59.67
21011;BME280;10663;42.714;23.274;2023-06-14T06:53:36;94561.72;;;24.13;59.28
21011;BME280;10663;42.714;23.274;2023-06-14T06:55:07;94555.38;;;24.79;57.62
21011;BME280;10663;42.714;23.274;2023-06-14T06:56:39;94566.25;;;24.25;57.24
21011;BME280;10663;42.714;23.274;2023-06-14T06:58:10;94558.50;;;23.57;59.54
21011;BME280;10663;42.714;23.274;2023-06-14T06:59:41;94557.50;;;23.81;58.87
21011;BME280;10663;42.714;23.274;2023-06-14T07:01:12;94564.22;;;24.38;57.37
21011;BME280;10663;42.714;23.274;2023-06-14T07:02:43;94561.50;;;24.57;57.34
21011;BME280;10663;42.714;23.274;2023-06-14T07:04:15;94571.94;;;24.20;57.63
21011;BME280;10663;42.714;23.274;2023-06-14T07:05:46;94560.34;;;24.96;55.66
21011;BME280;10663;42.714;23.274;2023-06-14T07:07:17;94565.00;;;24.57;56.54
21011;BME280;10663;42.714;23.274;2023-06-14T07:08:48;94556.50;;;24.97;56.00
21011;BME280;10663;42.714;23.274;2023-06-14T07:10:21;94563.16;;;25.23;55.22
21011;BME280;10663;42.714;23.274;2023-06-14T07:11:52;94557.03;;;25.71;53.77
21011;BME280;10663;42.714;23.274;2023-06-14T07:13:23;94553.44;;;25.90;53.44
21011;BME280;10663;42.714;23.274;2023-06-14T07:14:54;94556.47;;;25.85;53.81
21011;BME280;10663;42.714;23.274;2023-06-14T07:16:25;94553.44;;;26.17;53.60
21011;BME280;10663;42.714;23.274;2023-06-14T07:17:56;94554.69;;;25.70;52.84
21011;BME280;10663;42.714;23.274;2023-06-14T07:19:30;94554.97;;;25.42;54.06
21011;BME280;10663;42.714;23.274;2023-06-14T07:21:01;94548.72;;;24.77;55.69
21011;BME280;10663;42.714;23.274;2023-06-14T07:22:32;94547.31;;;24.83;55.00
21011;BME280;10663;42.714;23.274;2023-06-14T07:24:05;94554.03;;;25.31;53.94
21011;BME280;10663;42.714;23.274;2023-06-14T07:25:37;94549.78;;;25.56;53.80
21011;BME280;10663;42.714;23.274;2023-06-14T07:27:07;94549.66;;;25.95;52.82
21011;BME280;10663;42.714;23.274;2023-06-14T07:28:38;94547.03;;;26.02;53.86
21011;BME280;10663;42.714;23.274;2023-06-14T07:30:09;94552.72;;;26.50;51.22
21011;BME280;10663;42.714;23.274;2023-06-14T07:31:41;94550.16;;;26.60;52.54
21011;BME280;10663;42.714;23.274;2023-06-14T07:33:11;94552.50;;;26.62;51.38
21011;BME280;10663;42.714;23.274;2023-06-14T07:34:43;94547.41;;;26.90;50.07
21011;BME280;10663;42.714;23.274;2023-06-14T07:36:13;94548.22;;;26.61;50.30
21011;BME280;10663;42.714;23.274;2023-06-14T07:37:44;94549.66;;;26.51;49.72
21011;BME280;10663;42.714;23.274;2023-06-14T07:39:17;94547.44;;;26.60;49.86
21011;BME280;10663;42.714;23.274;2023-06-14T07:40:48;94552.28;;;26.77;49.73
21011;BME280;10663;42.714;23.274;2023-06-14T07:42:19;94545.31;;;27.10;49.27
21011;BME280;10663;42.714;23.274;2023-06-14T07:43:50;94548.16;;;27.24;49.42
21011;BME280;10663;42.714;23.274;2023-06-14T07:45:21;94550.38;;;27.11;49.43
21011;BME280;10663;42.714;23.274;2023-06-14T07:46:52;94553.03;;;26.74;50.02
21011;BME280;10663;42.714;23.274;2023-06-14T07:48:24;94550.69;;;26.73;50.26
21011;BME280;10663;42.714;23.274;2023-06-14T07:49:56;94558.84;;;26.43;50.57
21011;BME280;10663;42.714;23.274;2023-06-14T07:51:27;94551.78;;;26.65;49.76
21011;BME280;10663;42.714;23.274;2023-06-14T07:52:58;94557.25;;;27.02;48.20
21011;BME280;10663;42.714;23.274;2023-06-14T07:54:29;94564.13;;;26.06;49.41
21011;BME280;10663;42.714;23.274;2023-06-14T07:56:00;94568.00;;;26.61;49.48
21011;BME280;10663;42.714;23.274;2023-06-14T07:57:34;94565.13;;;26.80;49.24
21011;BME280;10663;42.714;23.274;2023-06-14T07:59:05;94569.09;;;26.87;48.90
21011;BME280;10663;42.714;23.274;2023-06-14T08:00:36;94565.16;;;26.51;49.13
21011;BME280;10663;42.714;23.274;2023-06-14T08:02:07;94573.88;;;26.63;48.54